createdAt,value
2023-04-18T00:00:36.832Z,64.81
2023-04-18T00:03:05.460Z,64.68
2023-04-18T00:05:32.462Z,64.19
2023-04-18T00:07:59.318Z,64.36
2023-04-18T00:10:26.337Z,63.83
2023-04-18T00:12:54.342Z,63.99
2023-04-18T00:15:21.049Z,63.54
2023-04-18T00:17:49.327Z,63.39
2023-04-18T00:20:16.104Z,63.29
2023-04-18T00:22:47.474Z,63.18
2023-04-18T00:25:15.987Z,62.98
2023-04-18T00:27:43.349Z,63.08
2023-04-18T00:30:11.064Z,63.09
2023-04-18T00:32:38.086Z,63.07
2023-04-18T00:35:07.216Z,62.62
2023-04-18T00:37:35.662Z,62.73
2023-04-18T00:40:02.521Z,62.61
2023-04-18T00:42:29.483Z,61.59
2023-04-18T00:44:56.823Z,62.19
2023-04-18T00:47:27.327Z,62.14
2023-04-18T00:49:55.310Z,60.95
2023-04-18T00:52:27.317Z,61.59
2023-04-18T00:54:54.724Z,62.06
2023-04-18T00:57:22.361Z,61.77
2023-04-18T00:59:52.019Z,61.82
2023-04-18T01:02:19.381Z,62.06
2023-04-18T01:04:46.646Z,61.89
2023-04-18T01:07:15.163Z,61.87
2023-04-18T01:09:44.090Z,61.99
2023-04-18T01:12:12.151Z,62.15
2023-04-18T01:14:42.115Z,61.99
2023-04-18T01:17:12.869Z,61.44
2023-04-18T01:19:39.839Z,61.71
2023-04-18T01:22:09.197Z,62.15
2023-04-18T01:24:37.403Z,61.90
2023-04-18T01:27:04.507Z,61.93
2023-04-18T01:29:31.440Z,61.89
2023-04-18T01:32:02.727Z,61.68
2023-04-18T01:34:29.537Z,61.87
2023-04-18T01:36:56.558Z,61.83
2023-04-18T01:39:23.604Z,61.57
2023-04-18T01:41:51.896Z,61.87
2023-04-18T01:44:18.626Z,61.83
2023-04-18T01:46:45.537Z,61.62
2023-04-18T01:49:12.398Z,61.49
2023-04-18T01:51:39.520Z,61.50
2023-04-18T01:54:06.730Z,61.71
2023-04-18T01:56:33.616Z,61.88
2023-04-18T01:59:01.891Z,62.04
2023-04-18T02:01:28.777Z,61.60
2023-04-18T02:03:56.026Z,61.85
2023-04-18T02:06:27.516Z,61.64
2023-04-18T02:08:54.321Z,61.85
2023-04-18T02:11:22.476Z,61.90
2023-04-18T02:13:50.528Z,61.81
2023-04-18T02:16:18.908Z,61.56
2023-04-18T02:18:45.926Z,61.86
2023-04-18T02:21:12.883Z,61.60
2023-04-18T02:23:39.817Z,61.84
2023-04-18T02:26:07.070Z,61.85
2023-04-18T02:28:33.950Z,61.90
2023-04-18T02:31:01.210Z,61.82
2023-04-18T02:33:29.447Z,62.00
2023-04-18T02:35:56.373Z,62.24
2023-04-18T02:38:23.401Z,61.94
2023-04-18T02:40:51.491Z,62.16
2023-04-18T02:43:18.218Z,61.79
2023-04-18T02:45:45.304Z,62.10
2023-04-18T02:48:12.302Z,62.07
2023-04-18T02:50:41.009Z,62.13
2023-04-18T02:53:07.842Z,62.06
2023-04-18T02:55:34.713Z,61.65
2023-04-18T02:58:02.394Z,61.94
2023-04-18T03:00:29.620Z,61.92
2023-04-18T03:02:56.693Z,62.11
2023-04-18T03:05:23.832Z,62.23
2023-04-18T03:07:51.998Z,62.07
2023-04-18T03:10:19.175Z,62.17
2023-04-18T03:12:47.747Z,61.93
2023-04-18T03:15:14.468Z,62.10
2023-04-18T03:17:42.620Z,62.24
2023-04-18T03:20:11.376Z,62.25
2023-04-18T03:22:38.287Z,62.23
2023-04-18T03:25:08.287Z,62.50
2023-04-18T03:27:35.269Z,62.31
2023-04-18T03:30:02.420Z,62.48
2023-04-18T03:32:33.816Z,62.50
2023-04-18T03:35:01.054Z,62.37
2023-04-18T03:37:28.185Z,62.61
2023-04-18T03:39:54.995Z,62.51
2023-04-18T03:42:23.242Z,62.62
2023-04-18T03:44:50.068Z,62.44
2023-04-18T03:47:18.387Z,62.62
2023-04-18T03:49:45.351Z,62.71
2023-04-18T03:52:12.090Z,62.66
2023-04-18T03:54:38.836Z,62.79
2023-04-18T03:57:05.792Z,62.59
2023-04-18T03:59:34.357Z,62.49
2023-04-18T04:02:01.683Z,62.69
2023-04-18T04:04:31.199Z,62.90
2023-04-18T04:06:58.173Z,62.69
2023-04-18T04:09:24.974Z,62.79
2023-04-18T04:11:52.086Z,62.78
2023-04-18T04:14:18.759Z,62.55
2023-04-18T04:16:47.100Z,62.64
2023-04-18T04:19:15.208Z,62.93
2023-04-18T04:21:42.174Z,62.85
2023-04-18T04:24:09.585Z,63.15
2023-04-18T04:26:36.491Z,62.93
2023-04-18T04:29:06.169Z,62.90
2023-04-18T04:31:33.111Z,63.08
2023-04-18T04:34:02.144Z,63.20
2023-04-18T04:36:29.228Z,63.18
2023-04-18T04:38:55.973Z,63.30
2023-04-18T04:41:25.521Z,63.25
2023-04-18T04:43:56.327Z,63.22
2023-04-18T04:46:23.984Z,63.35
2023-04-18T04:48:54.446Z,63.42
2023-04-18T04:51:25.908Z,63.50
2023-04-18T04:53:52.736Z,63.39
2023-04-18T04:56:19.794Z,63.60
2023-04-18T04:58:47.774Z,63.61
2023-04-18T05:01:14.978Z,63.55
2023-04-18T05:03:42.239Z,63.67
2023-04-18T05:06:09.728Z,63.65
2023-04-18T05:08:39.831Z,63.82
2023-04-18T05:11:06.672Z,63.72
2023-04-18T05:13:33.431Z,64.00
2023-04-18T05:16:00.257Z,64.05
2023-04-18T05:18:27.096Z,63.98
2023-04-18T05:20:54.264Z,64.10
2023-04-18T05:23:22.817Z,64.12
2023-04-18T05:25:51.509Z,64.16
2023-04-18T05:28:18.262Z,64.64
2023-04-18T05:30:45.313Z,64.25
2023-04-18T05:33:14.597Z,64.80
2023-04-18T05:35:41.346Z,64.38
2023-04-18T05:38:09.521Z,64.68
2023-04-18T05:40:36.318Z,64.42
2023-04-18T05:43:07.575Z,64.91
2023-04-18T05:45:34.479Z,64.70
2023-04-18T05:48:01.283Z,64.62
2023-04-18T05:50:28.293Z,64.59
2023-04-18T05:52:55.023Z,64.73
2023-04-18T05:55:21.794Z,64.53
2023-04-18T05:57:48.548Z,64.75
2023-04-18T06:00:17.708Z,64.97
2023-04-18T06:02:44.607Z,64.56
2023-04-18T06:05:13.299Z,64.75
2023-04-18T06:07:40.635Z,64.66
2023-04-18T06:10:11.174Z,65.00
2023-04-18T06:12:39.458Z,64.91
2023-04-18T06:15:07.598Z,64.75
2023-04-18T06:17:36.645Z,64.79
2023-04-18T06:20:07.967Z,64.99
2023-04-18T06:22:34.825Z,64.89
2023-04-18T06:25:01.695Z,64.76
2023-04-18T06:27:31.456Z,65.05
2023-04-18T06:29:59.218Z,64.97
2023-04-18T06:32:26.173Z,64.72
2023-04-18T06:34:54.473Z,64.89
2023-04-18T06:37:21.697Z,64.85
2023-04-18T06:39:48.407Z,64.69
2023-04-18T06:42:15.216Z,64.97
2023-04-18T06:44:43.221Z,64.86
2023-04-18T06:47:10.820Z,65.20
2023-04-18T06:49:37.688Z,65.17
2023-04-18T06:52:06.100Z,65.20
2023-04-18T06:54:32.995Z,65.08
2023-04-18T06:57:03.607Z,65.12
2023-04-18T06:59:30.793Z,65.37
2023-04-18T07:01:57.642Z,65.43
2023-04-18T07:04:24.778Z,65.04
2023-04-18T07:06:51.981Z,65.29
2023-04-18T07:09:24.945Z,65.25
2023-04-18T07:11:52.702Z,65.10
2023-04-18T07:14:21.964Z,65.20
2023-04-18T07:16:49.907Z,65.16
2023-04-18T07:19:16.755Z,64.91
2023-04-18T07:21:43.887Z,65.35
2023-04-18T07:24:13.359Z,65.23
2023-04-18T07:26:41.859Z,65.14
2023-04-18T07:29:14.015Z,65.10
2023-04-18T07:31:41.209Z,65.24
2023-04-18T07:34:09.207Z,65.33
2023-04-18T07:36:36.850Z,65.44
2023-04-18T07:39:03.807Z,65.30
2023-04-18T07:41:32.197Z,65.26
2023-04-18T07:44:00.830Z,65.42
2023-04-18T07:46:28.118Z,65.64
2023-04-18T07:48:55.193Z,65.54
2023-04-18T07:51:23.339Z,65.62
2023-04-18T07:53:50.255Z,65.46
2023-04-18T07:56:17.434Z,65.08
2023-04-18T07:58:45.643Z,65.34
2023-04-18T08:01:18.398Z,65.54
2023-04-18T08:03:46.950Z,65.57
2023-04-18T08:06:14.287Z,65.61
2023-04-18T08:08:41.200Z,65.31
2023-04-18T08:11:08.039Z,65.50
2023-04-18T08:13:34.892Z,65.82
2023-04-18T08:16:03.293Z,65.70
2023-04-18T08:18:31.604Z,65.68
2023-04-18T08:20:58.360Z,65.47
2023-04-18T08:23:25.923Z,65.73
2023-04-18T08:25:53.115Z,65.80
2023-04-18T08:28:20.122Z,65.80
2023-04-18T08:30:49.197Z,65.75
2023-04-18T08:33:16.238Z,65.51
2023-04-18T08:35:44.505Z,65.45
2023-04-18T08:38:11.315Z,65.35
2023-04-18T08:40:49.434Z,65.36
2023-04-18T08:43:16.748Z,65.55
2023-04-18T08:45:44.837Z,65.60
2023-04-18T08:48:13.246Z,65.61
2023-04-18T08:50:40.798Z,65.45
2023-04-18T08:53:11.079Z,65.57
2023-04-18T08:55:42.210Z,65.64
2023-04-18T08:58:12.563Z,65.61
2023-04-18T09:00:39.430Z,65.48
2023-04-18T09:03:07.463Z,65.76
2023-04-18T09:05:35.759Z,65.75
2023-04-18T09:08:24.420Z,65.38
2023-04-18T09:10:51.763Z,65.73
2023-04-18T09:13:38.808Z,65.47
2023-04-18T09:16:06.487Z,65.50
2023-04-18T09:18:34.731Z,65.44
2023-04-18T09:21:18.674Z,65.25
2023-04-18T09:23:50.863Z,65.11
2023-04-18T09:26:35.744Z,65.29
2023-04-18T09:29:03.320Z,64.99
2023-04-18T09:31:30.390Z,65.52
2023-04-18T09:33:58.479Z,65.23
2023-04-18T09:36:31.265Z,65.05
2023-04-18T09:39:02.194Z,65.30
2023-04-18T09:41:30.578Z,65.07
2023-04-18T09:44:13.200Z,65.11
2023-04-18T09:46:46.589Z,65.22
2023-04-18T09:49:18.367Z,65.41
2023-04-18T09:51:46.146Z,65.16
2023-04-18T09:54:16.828Z,65.25
2023-04-18T09:56:45.253Z,65.31
2023-04-18T09:59:15.317Z,65.14
2023-04-18T10:01:47.348Z,65.05
2023-04-18T10:04:16.965Z,64.98
2023-04-18T10:06:46.565Z,65.13
2023-04-18T10:09:17.068Z,64.81
2023-04-18T10:11:47.217Z,64.91
2023-04-18T10:14:16.270Z,64.69
2023-04-18T10:16:45.805Z,64.80
2023-04-18T10:19:24.934Z,64.43
2023-04-18T10:21:53.280Z,64.31
2023-04-18T10:24:50.578Z,64.14
2023-04-18T10:27:18.623Z,64.28
2023-04-18T10:29:51.247Z,63.80
2023-04-18T10:32:19.573Z,64.01
2023-04-18T10:34:49.327Z,64.27
2023-04-18T10:37:18.034Z,64.20
2023-04-18T10:39:57.507Z,64.25
2023-04-18T10:42:57.653Z,63.93
2023-04-18T10:45:26.171Z,63.89
2023-04-18T10:48:30.182Z,63.84
2023-04-18T10:51:17.164Z,64.32
2023-04-18T10:53:51.070Z,64.07
2023-04-18T10:56:20.500Z,64.32
2023-04-18T10:58:51.250Z,64.10
2023-04-18T11:01:27.064Z,64.11
2023-04-18T11:03:56.693Z,63.71
2023-04-18T11:06:27.858Z,63.51
2023-04-18T11:09:09.308Z,63.63
2023-04-18T11:11:36.051Z,63.60
2023-04-18T11:14:02.818Z,63.54
2023-04-18T11:16:39.917Z,63.49
2023-04-18T11:19:20.370Z,63.57
2023-04-18T11:21:47.291Z,62.95
2023-04-18T11:24:21.787Z,63.38
2023-04-18T11:26:48.756Z,63.08
2023-04-18T11:29:17.494Z,63.43
2023-04-18T11:31:50.383Z,63.13
2023-04-18T11:34:19.986Z,63.28
2023-04-18T11:36:50.389Z,63.05
2023-04-18T11:39:17.265Z,63.26
2023-04-18T11:41:50.272Z,63.39
2023-04-18T11:44:17.734Z,63.02
2023-04-18T11:46:47.720Z,62.64
2023-04-18T11:49:33.922Z,62.68
2023-04-18T11:52:01.583Z,63.09
2023-04-18T11:54:39.715Z,63.08
2023-04-18T11:57:07.462Z,62.59
2023-04-18T11:59:34.343Z,63.11
2023-04-18T12:02:15.443Z,62.85
2023-04-18T12:04:56.223Z,62.86
2023-04-18T12:07:35.118Z,63.32
2023-04-18T12:10:02.553Z,63.16
2023-04-18T12:12:29.346Z,63.29
2023-04-18T12:15:00.574Z,62.87
2023-04-18T12:17:27.750Z,63.05
2023-04-18T12:19:55.862Z,63.21
2023-04-18T12:22:38.577Z,63.04
2023-04-18T12:25:20.445Z,62.90
2023-04-18T12:27:53.604Z,62.98
2023-04-18T12:30:22.142Z,63.14
2023-04-18T12:32:50.791Z,62.97
2023-04-18T12:35:20.866Z,63.12
2023-04-18T12:37:48.181Z,63.02
2023-04-18T12:40:16.061Z,63.03
2023-04-18T12:42:42.967Z,62.63
2023-04-18T12:45:10.754Z,62.91
2023-04-18T12:47:38.689Z,62.28
2023-04-18T12:50:07.295Z,62.26
2023-04-18T12:52:38.544Z,61.97
2023-04-18T12:55:07.083Z,62.18
2023-04-18T12:57:36.220Z,61.84
2023-04-18T13:00:06.406Z,62.05
2023-04-18T13:02:35.470Z,62.05
2023-04-18T13:05:02.570Z,61.99
2023-04-18T13:07:29.776Z,62.18
2023-04-18T13:09:57.887Z,62.17
2023-04-18T13:12:24.684Z,61.83
2023-04-18T13:14:51.469Z,62.19
2023-04-18T13:17:18.349Z,61.99
2023-04-18T13:19:46.742Z,62.06
2023-04-18T13:22:13.485Z,61.85
2023-04-18T13:24:40.419Z,62.07
2023-04-18T13:27:10.577Z,62.06
2023-04-18T13:29:39.142Z,62.30
2023-04-18T13:32:06.495Z,62.28
2023-04-18T13:34:34.858Z,62.24
2023-04-18T13:37:01.656Z,62.12
2023-04-18T13:39:29.166Z,62.42
2023-04-18T13:41:56.567Z,62.20
2023-04-18T13:44:27.708Z,62.18
2023-04-18T13:46:57.036Z,61.92
2023-04-18T13:49:23.823Z,62.06
2023-04-18T13:51:53.475Z,61.95
2023-04-18T13:54:20.347Z,62.15
2023-04-18T13:56:47.100Z,61.66
2023-04-18T13:59:14.324Z,61.50
2023-04-18T14:01:42.897Z,61.51
2023-04-18T14:04:10.059Z,61.15
2023-04-18T14:06:38.214Z,61.57
2023-04-18T14:09:05.045Z,61.31
2023-04-18T14:11:31.832Z,61.38
2023-04-18T14:13:58.568Z,61.16
2023-04-18T14:16:25.678Z,61.00
2023-04-18T14:18:54.240Z,60.85
2023-04-18T14:21:21.258Z,61.27
2023-04-18T14:23:48.205Z,60.80
2023-04-18T14:26:14.963Z,60.51
2023-04-18T14:28:41.821Z,60.42
2023-04-18T14:31:08.695Z,60.46
2023-04-18T14:33:35.796Z,60.68
2023-04-18T14:36:09.342Z,60.34
2023-04-18T14:38:36.596Z,60.31
2023-04-18T14:41:04.384Z,60.45
2023-04-18T14:43:31.221Z,60.08
2023-04-18T14:45:59.547Z,60.13
2023-04-18T14:48:27.147Z,60.29
2023-04-18T14:50:57.286Z,60.19
2023-04-18T14:53:27.455Z,60.14
2023-04-18T14:55:54.325Z,59.76
2023-04-18T14:58:21.209Z,59.86
2023-04-18T15:00:49.233Z,60.11
2023-04-18T15:03:16.892Z,60.00
2023-04-18T15:05:46.657Z,59.97
2023-04-18T15:08:14.638Z,60.04
2023-04-18T15:10:44.593Z,59.84
2023-04-18T15:13:11.646Z,59.62
2023-04-18T15:15:39.771Z,59.23
2023-04-18T15:18:07.759Z,59.66
2023-04-18T15:20:36.179Z,59.51
2023-04-18T15:23:04.203Z,59.31
2023-04-18T15:25:31.121Z,58.98
2023-04-18T15:27:59.325Z,59.30
2023-04-18T15:30:26.457Z,59.11
2023-04-18T15:32:54.735Z,59.11
2023-04-18T15:35:21.949Z,59.29
2023-04-18T15:37:49.354Z,58.88
2023-04-18T15:40:18.232Z,58.87
2023-04-18T15:42:49.644Z,58.69
2023-04-18T15:45:20.126Z,58.80
2023-04-18T15:47:47.066Z,58.99
2023-04-18T15:50:17.050Z,58.62
2023-04-18T15:52:46.354Z,58.74
2023-04-18T15:55:13.729Z,58.85
2023-04-18T15:57:41.654Z,59.05
2023-04-18T16:00:15.901Z,58.67
2023-04-18T16:02:45.228Z,58.49
2023-04-18T16:05:13.098Z,58.70
2023-04-18T16:07:40.166Z,58.61
2023-04-18T16:10:10.168Z,58.74
2023-04-18T16:12:37.996Z,58.67
2023-04-18T16:15:06.687Z,58.72
2023-04-18T16:17:33.810Z,58.90
2023-04-18T16:20:02.391Z,58.77
2023-04-18T16:22:29.371Z,58.99
2023-04-18T16:24:56.240Z,58.89
2023-04-18T16:27:23.061Z,58.94
2023-04-18T16:29:50.254Z,58.64
2023-04-18T16:32:17.241Z,58.58
2023-04-18T16:34:44.273Z,58.67
2023-04-18T16:37:12.537Z,58.64
2023-04-18T16:39:39.280Z,58.63
2023-04-18T16:42:06.188Z,58.51
2023-04-18T16:44:33.379Z,58.54
2023-04-18T16:47:00.443Z,58.41
2023-04-18T16:49:27.375Z,58.24
2023-04-18T16:51:54.279Z,58.09
2023-04-18T16:54:22.587Z,58.40
2023-04-18T16:56:49.341Z,58.33
2023-04-18T16:59:16.302Z,58.72
2023-04-18T17:01:43.027Z,58.50
2023-04-18T17:04:09.794Z,58.62
2023-04-18T17:06:36.804Z,58.69
2023-04-18T17:09:06.405Z,58.42
2023-04-18T17:11:39.576Z,58.55
2023-04-18T17:14:07.687Z,58.88
2023-04-18T17:16:35.120Z,58.93
2023-04-18T17:19:02.002Z,59.11
2023-04-18T17:21:28.876Z,58.85
2023-04-18T17:23:56.419Z,58.74
2023-04-18T17:26:24.394Z,59.15
2023-04-18T17:28:52.663Z,58.91
2023-04-18T17:31:19.601Z,58.91
2023-04-18T17:33:46.315Z,58.94
2023-04-18T17:36:13.156Z,59.42
2023-04-18T17:38:40.674Z,59.15
2023-04-18T17:41:07.918Z,59.17
2023-04-18T17:43:34.655Z,59.51
2023-04-18T17:46:03.868Z,59.56
2023-04-18T17:48:30.844Z,59.53
2023-04-18T17:50:57.633Z,59.59
2023-04-18T17:53:25.693Z,59.63
2023-04-18T17:55:52.585Z,60.03
2023-04-18T17:58:19.921Z,60.07
2023-04-18T18:00:46.902Z,59.93
2023-04-18T18:03:15.389Z,59.98
2023-04-18T18:05:45.466Z,60.07
2023-04-18T18:08:12.306Z,60.36
2023-04-18T18:10:39.562Z,60.15
2023-04-18T18:16:54.183Z,60.48
2023-04-18T18:19:22.452Z,60.82
2023-04-18T18:21:49.213Z,60.63
2023-04-18T18:24:16.290Z,60.64
2023-04-18T18:26:43.133Z,60.75
2023-04-18T18:29:11.147Z,60.90
2023-04-18T18:31:38.669Z,61.14
2023-04-18T18:34:06.094Z,60.83
2023-04-18T18:36:34.310Z,60.99
2023-04-18T18:39:00.999Z,61.29
2023-04-18T18:41:27.819Z,61.46
2023-04-18T18:43:54.610Z,61.42
2023-04-18T18:46:21.467Z,61.46
2023-04-18T18:48:49.775Z,61.55
2023-04-18T18:51:18.501Z,61.46
2023-04-18T18:53:47.171Z,61.72
2023-04-18T18:56:14.617Z,61.78
2023-04-18T18:58:43.849Z,61.90
2023-04-18T19:01:11.616Z,62.03
2023-04-18T19:03:38.549Z,61.79
2023-04-18T19:06:07.268Z,61.86
2023-04-18T19:08:34.233Z,62.00
2023-04-18T19:11:02.396Z,62.29
2023-04-18T19:13:29.221Z,62.01
2023-04-18T19:15:56.034Z,62.27
2023-04-18T19:18:22.967Z,62.03
2023-04-18T19:20:50.581Z,61.70
2023-04-18T19:23:17.621Z,62.25
2023-04-18T19:25:44.968Z,62.16
2023-04-18T19:28:14.431Z,62.31
2023-04-18T19:30:42.417Z,62.34
2023-04-18T19:33:09.432Z,62.27
2023-04-18T19:35:37.921Z,62.22
2023-04-18T19:38:07.932Z,62.66
2023-04-18T19:40:34.687Z,62.55
2023-04-18T19:43:01.443Z,62.87
2023-04-18T19:45:30.473Z,62.55
2023-04-18T19:47:57.350Z,62.98
2023-04-18T19:50:24.498Z,62.87
2023-04-18T19:52:51.320Z,63.08
2023-04-18T19:55:18.010Z,62.71
2023-04-18T19:57:44.948Z,63.00
2023-04-18T20:00:13.074Z,63.26
2023-04-18T20:02:41.613Z,62.94
2023-04-18T20:05:09.754Z,63.35
2023-04-18T20:07:36.920Z,63.15
2023-04-18T20:10:04.530Z,63.25
2023-04-18T20:12:31.524Z,63.60
2023-04-18T20:14:59.015Z,63.62
2023-04-18T20:17:26.266Z,63.39
2023-04-18T20:19:57.130Z,63.43
2023-04-18T20:22:26.042Z,63.85
2023-04-18T20:24:53.084Z,63.72
2023-04-18T20:27:23.040Z,63.53
2023-04-18T20:29:50.021Z,63.53
2023-04-18T20:32:17.003Z,63.71
2023-04-18T20:34:43.670Z,63.59
2023-04-18T20:37:11.866Z,63.84
2023-04-18T20:39:39.903Z,63.85
2023-04-18T20:42:07.015Z,63.52
2023-04-18T20:44:35.163Z,63.75
2023-04-18T20:47:02.368Z,63.77
2023-04-18T20:49:29.675Z,64.04
2023-04-18T20:51:56.533Z,63.92
2023-04-18T20:54:26.280Z,63.81
2023-04-18T20:56:52.979Z,63.88
2023-04-18T20:59:19.725Z,63.85
2023-04-18T21:01:47.929Z,63.91
2023-04-18T21:04:15.181Z,64.04
2023-04-18T21:06:42.744Z,63.91
2023-04-18T21:09:09.544Z,64.03
2023-04-18T21:11:38.449Z,63.97
2023-04-18T21:14:06.742Z,64.21
2023-04-18T21:16:33.802Z,64.25
2023-04-18T21:19:00.585Z,64.23
2023-04-18T21:21:27.610Z,64.06
2023-04-18T21:23:54.259Z,64.17
2023-04-18T21:26:21.037Z,64.27
2023-04-18T21:28:59.796Z,64.08
2023-04-18T21:31:29.081Z,64.45
2023-04-18T21:33:57.323Z,64.29
2023-04-18T21:36:29.272Z,64.41
2023-04-18T21:38:57.100Z,64.47
2023-04-18T21:41:25.602Z,64.27
2023-04-18T21:43:54.135Z,64.65
2023-04-18T21:46:22.782Z,64.50
2023-04-18T21:48:49.675Z,64.58
2023-04-18T21:51:17.342Z,64.42
2023-04-18T21:53:44.202Z,64.42
2023-04-18T21:56:11.530Z,64.58
2023-04-18T21:58:38.585Z,64.39
2023-04-18T22:01:05.570Z,64.64
2023-04-18T22:03:34.316Z,64.93
2023-04-18T22:06:02.040Z,64.79
2023-04-18T22:08:29.611Z,64.56
2023-04-18T22:10:58.974Z,65.07
2023-04-18T22:13:30.128Z,64.87
2023-04-18T22:15:58.309Z,64.68
2023-04-18T22:18:25.339Z,65.01
2023-04-18T22:20:53.906Z,64.90
2023-04-18T22:23:20.687Z,65.08
2023-04-18T22:25:48.880Z,65.01
2023-04-18T22:28:16.238Z,65.06
2023-04-18T22:30:43.131Z,65.07
2023-04-18T22:33:11.559Z,65.18
2023-04-18T22:35:38.386Z,65.22
2023-04-18T22:38:06.876Z,65.27
2023-04-18T22:40:33.607Z,65.34
2023-04-18T22:43:00.475Z,65.49
2023-04-18T22:45:27.332Z,65.23
2023-04-18T22:47:54.756Z,65.44
2023-04-18T22:50:21.895Z,65.32
2023-04-18T22:52:48.642Z,65.45
2023-04-18T22:55:19.935Z,65.40
2023-04-18T22:57:46.870Z,65.29
2023-04-18T23:00:14.946Z,65.34
2023-04-18T23:02:41.937Z,65.19
2023-04-18T23:05:10.854Z,65.28
2023-04-18T23:07:37.755Z,65.67
2023-04-18T23:10:06.468Z,65.42
2023-04-18T23:12:34.656Z,65.38
2023-04-18T23:15:01.433Z,65.64
2023-04-18T23:17:28.223Z,65.83
2023-04-18T23:19:55.027Z,65.49
2023-04-18T23:22:24.542Z,65.91
2023-04-18T23:24:51.624Z,65.80
2023-04-18T23:27:18.899Z,65.57
2023-04-18T23:29:55.880Z,65.90
2023-04-18T23:32:23.310Z,65.51
2023-04-18T23:34:50.182Z,65.67
2023-04-18T23:37:17.189Z,65.91
2023-04-18T23:39:44.229Z,65.68
2023-04-18T23:42:11.048Z,65.61
2023-04-18T23:44:38.982Z,65.93
2023-04-18T23:47:07.335Z,65.69
2023-04-18T23:49:37.177Z,65.96
2023-04-18T23:52:04.436Z,65.83
2023-04-18T23:54:31.221Z,66.05
2023-04-18T23:56:58.244Z,66.07
2023-04-18T23:59:25.080Z,66.07
